sensor_id;sensor_type;location;lat;lon;timestamp;temperature;humidity
1205;DHT22;592;48.764;9.174;2023-04-15T00:00:43;6.30;99.90
1205;DHT22;592;48.764;9.174;2023-04-15T00:03:09;6.30;99.90
1205;DHT22;592;48.764;9.174;2023-04-15T00:05:38;6.30;99.90
1205;DHT22;592;48.764;9.174;2023-04-15T00:08:04;6.30;99.90
1205;DHT22;592;48.764;9.174;2023-04-15T00:10:32;6.20;99.90
1205;DHT22;592;48.764;9.174;2023-04-15T00:12:59;6.30;99.90
1205;DHT22;592;48.764;9.174;2023-04-15T00:15:26;6.30;99.90
1205;DHT22;592;48.764;9.174;2023-04-15T00:17:53;6.20;99.90
1205;DHT22;592;48.764;9.174;2023-04-15T00:20:20;6.20;99.90
1205;DHT22;592;48.764;9.174;2023-04-15T00:22:48;6.30;99.90
1205;DHT22;592;48.764;9.174;2023-04-15T00:25:15;6.20;99.90
1205;DHT22;592;48.764;9.174;2023-04-15T00:27:41;5.90;99.90
1205;DHT22;592;48.764;9.174;2023-04-15T00:30:08;5.80;99.90
1205;DHT22;592;48.764;9.174;2023-04-15T00:32:36;5.70;99.90
1205;DHT22;592;48.764;9.174;2023-04-15T00:35:03;5.80;99.90
1205;DHT22;592;48.764;9.174;2023-04-15T00:37:30;6.00;99.90
1205;DHT22;592;48.764;9.174;2023-04-15T00:39:58;6.00;99.90
1205;DHT22;592;48.764;9.174;2023-04-15T00:42:24;6.00;99.90
1205;DHT22;592;48.764;9.174;2023-04-15T00:44:51;6.00;99.90
1205;DHT22;592;48.764;9.174;2023-04-15T00:47:19;5.90;99.90
1205;DHT22;592;48.764;9.174;2023-04-15T00:49:46;5.80;99.90
1205;DHT22;592;48.764;9.174;2023-04-15T00:52:12;5.70;99.90
1205;DHT22;592;48.764;9.174;2023-04-15T00:54:39;5.80;99.90
1205;DHT22;592;48.764;9.174;2023-04-15T00:57:07;5.70;99.90
1205;DHT22;592;48.764;9.174;2023-04-15T00:59:34;5.70;99.90
1205;DHT22;592;48.764;9.174;2023-04-15T01:02:01;5.80;99.90
1205;DHT22;592;48.764;9.174;2023-04-15T01:04:28;5.80;99.90
1205;DHT22;592;48.764;9.174;2023-04-15T01:06:55;5.80;99.90
1205;DHT22;592;48.764;9.174;2023-04-15T01:09:22;5.70;99.90
1205;DHT22;592;48.764;9.174;2023-04-15T01:11:49;5.60;99.90
1205;DHT22;592;48.764;9.174;2023-04-15T01:14:17;5.40;99.90
1205;DHT22;592;48.764;9.174;2023-04-15T01:16:45;5.50;99.90
1205;DHT22;592;48.764;9.174;2023-04-15T01:19:13;5.50;99.90
1205;DHT22;592;48.764;9.174;2023-04-15T01:21:42;5.50;99.90
1205;DHT22;592;48.764;9.174;2023-04-15T01:24:09;5.60;99.90
1205;DHT22;592;48.764;9.174;2023-04-15T01:26:38;5.60;99.90
1205;DHT22;592;48.764;9.174;2023-04-15T01:29:05;5.60;99.90
1205;DHT22;592;48.764;9.174;2023-04-15T01:31:33;5.60;99.90
1205;DHT22;592;48.764;9.174;2023-04-15T01:33:59;5.60;99.90
1205;DHT22;592;48.764;9.174;2023-04-15T01:36:26;5.60;99.90
1205;DHT22;592;48.764;9.174;2023-04-15T01:38:54;5.60;99.90
1205;DHT22;592;48.764;9.174;2023-04-15T01:41:23;5.50;99.90
1205;DHT22;592;48.764;9.174;2023-04-15T01:43:52;5.60;99.90
1205;DHT22;592;48.764;9.174;2023-04-15T01:46:19;5.50;99.90
1205;DHT22;592;48.764;9.174;2023-04-15T01:48:46;5.50;99.90
1205;DHT22;592;48.764;9.174;2023-04-15T01:51:13;5.50;99.90
1205;DHT22;592;48.764;9.174;2023-04-15T01:53:39;5.40;99.90
1205;DHT22;592;48.764;9.174;2023-04-15T01:56:06;5.40;99.90
1205;DHT22;592;48.764;9.174;2023-04-15T01:58:33;5.30;99.90
1205;DHT22;592;48.764;9.174;2023-04-15T02:01:01;5.30;99.90
1205;DHT22;592;48.764;9.174;2023-04-15T02:03:28;5.40;99.90
1205;DHT22;592;48.764;9.174;2023-04-15T02:05:55;5.40;99.90
1205;DHT22;592;48.764;9.174;2023-04-15T02:08:22;5.40;99.90
1205;DHT22;592;48.764;9.174;2023-04-15T02:10:48;5.40;99.90
1205;DHT22;592;48.764;9.174;2023-04-15T02:13:15;5.30;99.90
1205;DHT22;592;48.764;9.174;2023-04-15T02:15:46;5.30;99.90
1205;DHT22;592;48.764;9.174;2023-04-15T02:18:14;5.30;99.90
1205;DHT22;592;48.764;9.174;2023-04-15T02:20:41;5.30;99.90
1205;DHT22;592;48.764;9.174;2023-04-15T02:23:09;5.20;99.90
1205;DHT22;592;48.764;9.174;2023-04-15T02:25:36;5.20;99.90
1205;DHT22;592;48.764;9.174;2023-04-15T02:28:03;5.10;99.90
1205;DHT22;592;48.764;9.174;2023-04-15T02:30:30;5.10;99.90
1205;DHT22;592;48.764;9.174;2023-04-15T02:32:57;5.10;99.90
1205;DHT22;592;48.764;9.174;2023-04-15T02:35:25;5.10;99.90
1205;DHT22;592;48.764;9.174;2023-04-15T02:37:52;5.10;99.90
1205;DHT22;592;48.764;9.174;2023-04-15T02:40:19;5.10;99.90
1205;DHT22;592;48.764;9.174;2023-04-15T02:42:46;5.00;99.90
1205;DHT22;592;48.764;9.174;2023-04-15T02:45:12;5.00;99.90
1205;DHT22;592;48.764;9.174;2023-04-15T02:47:39;5.00;99.90
1205;DHT22;592;48.764;9.174;2023-04-15T02:50:09;5.00;99.90
1205;DHT22;592;48.764;9.174;2023-04-15T02:52:38;5.10;99.90
1205;DHT22;592;48.764;9.174;2023-04-15T02:55:06;5.00;99.90
1205;DHT22;592;48.764;9.174;2023-04-15T02:57:34;4.90;99.90
1205;DHT22;592;48.764;9.174;2023-04-15T03:00:02;4.80;99.90
1205;DHT22;592;48.764;9.174;2023-04-15T03:02:33;4.60;99.90
1205;DHT22;592;48.764;9.174;2023-04-15T03:04:59;4.70;99.90
1205;DHT22;592;48.764;9.174;2023-04-15T03:07:26;4.90;99.90
1205;DHT22;592;48.764;9.174;2023-04-15T03:09:54;4.80;99.90
1205;DHT22;592;48.764;9.174;2023-04-15T03:12:21;4.90;99.90
1205;DHT22;592;48.764;9.174;2023-04-15T03:14:48;4.80;99.90
1205;DHT22;592;48.764;9.174;2023-04-15T03:17:14;4.80;99.90
1205;DHT22;592;48.764;9.174;2023-04-15T03:19:41;4.80;99.90
1205;DHT22;592;48.764;9.174;2023-04-15T03:22:08;4.80;99.90
1205;DHT22;592;48.764;9.174;2023-04-15T03:24:35;4.80;99.90
1205;DHT22;592;48.764;9.174;2023-04-15T03:27:03;4.80;99.90
1205;DHT22;592;48.764;9.174;2023-04-15T03:29:30;4.70;99.90
1205;DHT22;592;48.764;9.174;2023-04-15T03:31:57;4.70;99.90
1205;DHT22;592;48.764;9.174;2023-04-15T03:34:24;4.70;99.90
1205;DHT22;592;48.764;9.174;2023-04-15T03:36:50;4.70;99.90
1205;DHT22;592;48.764;9.174;2023-04-15T03:39:17;4.70;99.90
1205;DHT22;592;48.764;9.174;2023-04-15T03:41:44;4.60;99.90
1205;DHT22;592;48.764;9.174;2023-04-15T03:44:12;4.50;99.90
1205;DHT22;592;48.764;9.174;2023-04-15T03:46:39;4.60;99.90
1205;DHT22;592;48.764;9.174;2023-04-15T03:49:06;4.70;99.90
1205;DHT22;592;48.764;9.174;2023-04-15T03:51:33;4.70;99.90
1205;DHT22;592;48.764;9.174;2023-04-15T03:54:00;4.70;99.90
1205;DHT22;592;48.764;9.174;2023-04-15T03:56:26;4.70;99.90
1205;DHT22;592;48.764;9.174;2023-04-15T03:58:53;4.60;99.90
1205;DHT22;592;48.764;9.174;2023-04-15T04:01:21;4.60;99.90
1205;DHT22;592;48.764;9.174;2023-04-15T04:03:48;4.60;99.90
1205;DHT22;592;48.764;9.174;2023-04-15T04:06:15;4.60;99.90
1205;DHT22;592;48.764;9.174;2023-04-15T04:08:42;4.50;99.90
1205;DHT22;592;48.764;9.174;2023-04-15T04:11:08;4.60;99.90
1205;DHT22;592;48.764;9.174;2023-04-15T04:13:35;4.60;99.90
1205;DHT22;592;48.764;9.174;2023-04-15T04:16:02;4.60;99.90
1205;DHT22;592;48.764;9.174;2023-04-15T04:18:31;4.50;99.90
1205;DHT22;592;48.764;9.174;2023-04-15T04:20:57;4.60;99.90
1205;DHT22;592;48.764;9.174;2023-04-15T04:23:24;4.40;99.90
1205;DHT22;592;48.764;9.174;2023-04-15T04:25:51;4.50;99.90
1205;DHT22;592;48.764;9.174;2023-04-15T04:28:18;4.40;99.90
1205;DHT22;592;48.764;9.174;2023-04-15T04:30:44;4.50;99.90
1205;DHT22;592;48.764;9.174;2023-04-15T04:33:11;4.50;99.90
1205;DHT22;592;48.764;9.174;2023-04-15T04:35:39;4.40;99.90
1205;DHT22;592;48.764;9.174;2023-04-15T04:38:06;4.50;99.90
1205;DHT22;592;48.764;9.174;2023-04-15T04:40:33;4.50;99.90
1205;DHT22;592;48.764;9.174;2023-04-15T04:43:00;4.50;99.90
1205;DHT22;592;48.764;9.174;2023-04-15T04:45:26;4.50;99.90
1205;DHT22;592;48.764;9.174;2023-04-15T04:47:53;4.40;99.90
1205;DHT22;592;48.764;9.174;2023-04-15T04:50:20;4.40;99.90
1205;DHT22;592;48.764;9.174;2023-04-15T04:52:48;4.10;99.90
1205;DHT22;592;48.764;9.174;2023-04-15T04:55:15;3.80;99.90
1205;DHT22;592;48.764;9.174;2023-04-15T04:57:41;3.90;99.90
1205;DHT22;592;48.764;9.174;2023-04-15T05:00:09;4.00;99.90
1205;DHT22;592;48.764;9.174;2023-04-15T05:02:37;4.10;99.90
1205;DHT22;592;48.764;9.174;2023-04-15T05:05:04;4.10;99.90
1205;DHT22;592;48.764;9.174;2023-04-15T05:07:31;4.20;99.90
1205;DHT22;592;48.764;9.174;2023-04-15T05:09:59;4.20;99.90
1205;DHT22;592;48.764;9.174;2023-04-15T05:12:26;4.20;99.90
1205;DHT22;592;48.764;9.174;2023-04-15T05:14:52;4.20;99.90
1205;DHT22;592;48.764;9.174;2023-04-15T05:17:19;4.30;99.90
1205;DHT22;592;48.764;9.174;2023-04-15T05:19:46;4.30;99.90
1205;DHT22;592;48.764;9.174;2023-04-15T05:22:13;4.40;99.90
1205;DHT22;592;48.764;9.174;2023-04-15T05:24:40;4.40;99.90
1205;DHT22;592;48.764;9.174;2023-04-15T05:27:08;4.50;99.90
1205;DHT22;592;48.764;9.174;2023-04-15T05:29:36;4.50;99.90
1205;DHT22;592;48.764;9.174;2023-04-15T05:32:02;4.60;99.90
1205;DHT22;592;48.764;9.174;2023-04-15T05:34:29;4.40;99.90
1205;DHT22;592;48.764;9.174;2023-04-15T05:36:56;4.20;99.90
1205;DHT22;592;48.764;9.174;2023-04-15T05:39:23;4.30;99.90
1205;DHT22;592;48.764;9.174;2023-04-15T05:41:50;4.60;99.90
1205;DHT22;592;48.764;9.174;2023-04-15T05:44:18;4.90;99.90
1205;DHT22;592;48.764;9.174;2023-04-15T05:46:44;5.00;99.90
1205;DHT22;592;48.764;9.174;2023-04-15T05:49:11;4.80;99.90
1205;DHT22;592;48.764;9.174;2023-04-15T05:51:38;4.80;99.90
1205;DHT22;592;48.764;9.174;2023-04-15T05:54:05;4.80;99.90
1205;DHT22;592;48.764;9.174;2023-04-15T05:56:31;5.00;99.90
1205;DHT22;592;48.764;9.174;2023-04-15T05:58:58;5.40;99.90
1205;DHT22;592;48.764;9.174;2023-04-15T06:01:26;5.60;99.90
1205;DHT22;592;48.764;9.174;2023-04-15T06:03:53;5.50;99.90
1205;DHT22;592;48.764;9.174;2023-04-15T06:06:20;5.40;99.90
1205;DHT22;592;48.764;9.174;2023-04-15T06:08:47;5.30;99.90
1205;DHT22;592;48.764;9.174;2023-04-15T06:11:13;5.50;99.90
1205;DHT22;592;48.764;9.174;2023-04-15T06:13:40;5.90;99.90
1205;DHT22;592;48.764;9.174;2023-04-15T06:16:07;6.40;99.90
1205;DHT22;592;48.764;9.174;2023-04-15T06:18:35;6.80;99.90
1205;DHT22;592;48.764;9.174;2023-04-15T06:21:02;6.90;99.90
1205;DHT22;592;48.764;9.174;2023-04-15T06:23:28;6.90;99.90
1205;DHT22;592;48.764;9.174;2023-04-15T06:25:55;7.00;99.90
1205;DHT22;592;48.764;9.174;2023-04-15T06:28:22;7.10;99.90
1205;DHT22;592;48.764;9.174;2023-04-15T06:30:49;7.10;99.90
1205;DHT22;592;48.764;9.174;2023-04-15T06:33:16;7.40;99.90
1205;DHT22;592;48.764;9.174;2023-04-15T06:35:44;7.50;99.90
1205;DHT22;592;48.764;9.174;2023-04-15T06:38:10;7.60;99.90
1205;DHT22;592;48.764;9.174;2023-04-15T06:40:37;7.70;99.90
1205;DHT22;592;48.764;9.174;2023-04-15T06:43:04;7.80;99.90
1205;DHT22;592;48.764;9.174;2023-04-15T06:45:30;7.70;99.90
1205;DHT22;592;48.764;9.174;2023-04-15T06:47:57;7.70;99.90
1205;DHT22;592;48.764;9.174;2023-04-15T06:50:24;7.80;99.90
1205;DHT22;592;48.764;9.174;2023-04-15T06:52:53;7.80;99.90
1205;DHT22;592;48.764;9.174;2023-04-15T06:55:20;7.90;99.90
1205;DHT22;592;48.764;9.174;2023-04-15T06:57:46;8.00;99.90
1205;DHT22;592;48.764;9.174;2023-04-15T07:00:13;8.10;99.90
1205;DHT22;592;48.764;9.174;2023-04-15T07:02:40;8.20;99.90
1205;DHT22;592;48.764;9.174;2023-04-15T07:05:07;8.20;99.90
1205;DHT22;592;48.764;9.174;2023-04-15T07:07:34;8.20;99.90
1205;DHT22;592;48.764;9.174;2023-04-15T07:10:03;8.20;99.90
1205;DHT22;592;48.764;9.174;2023-04-15T07:12:30;8.20;99.90
1205;DHT22;592;48.764;9.174;2023-04-15T07:14:57;8.20;99.90
1205;DHT22;592;48.764;9.174;2023-04-15T07:17:24;8.30;99.90
1205;DHT22;592;48.764;9.174;2023-04-15T07:19:51;8.40;99.90
1205;DHT22;592;48.764;9.174;2023-04-15T07:22:18;8.60;99.90
1205;DHT22;592;48.764;9.174;2023-04-15T07:24:45;8.80;99.90
1205;DHT22;592;48.764;9.174;2023-04-15T07:27:13;8.80;99.90
1205;DHT22;592;48.764;9.174;2023-04-15T07:29:40;8.90;99.90
1205;DHT22;592;48.764;9.174;2023-04-15T07:32:06;9.10;99.90
1205;DHT22;592;48.764;9.174;2023-04-15T07:34:34;9.30;99.90
1205;DHT22;592;48.764;9.174;2023-04-15T07:37:01;9.50;99.90
1205;DHT22;592;48.764;9.174;2023-04-15T07:39:28;9.50;99.90
1205;DHT22;592;48.764;9.174;2023-04-15T07:41:55;9.50;99.90
1205;DHT22;592;48.764;9.174;2023-04-15T07:44:25;9.50;99.90
1205;DHT22;592;48.764;9.174;2023-04-15T07:46:52;9.50;99.90
1205;DHT22;592;48.764;9.174;2023-04-15T07:49:18;9.40;99.90
1205;DHT22;592;48.764;9.174;2023-04-15T07:51:45;9.40;99.90
1205;DHT22;592;48.764;9.174;2023-04-15T07:54:13;9.50;99.90
1205;DHT22;592;48.764;9.174;2023-04-15T07:56:39;9.40;99.90
1205;DHT22;592;48.764;9.174;2023-04-15T07:59:06;9.50;99.90
1205;DHT22;592;48.764;9.174;2023-04-15T08:01:35;9.50;99.90
1205;DHT22;592;48.764;9.174;2023-04-15T08:04:03;9.40;99.90
1205;DHT22;592;48.764;9.174;2023-04-15T08:06:30;9.50;99.90
1205;DHT22;592;48.764;9.174;2023-04-15T08:08:57;9.60;99.90
1205;DHT22;592;48.764;9.174;2023-04-15T08:11:24;9.90;99.90
1205;DHT22;592;48.764;9.174;2023-04-15T08:13:51;10.10;99.90
1205;DHT22;592;48.764;9.174;2023-04-15T08:16:19;10.20;99.90
1205;DHT22;592;48.764;9.174;2023-04-15T08:18:49;10.30;99.90
1205;DHT22;592;48.764;9.174;2023-04-15T08:21:18;10.40;99.90
1205;DHT22;592;48.764;9.174;2023-04-15T08:23:47;10.20;99.90
1205;DHT22;592;48.764;9.174;2023-04-15T08:26:14;10.40;99.90
1205;DHT22;592;48.764;9.174;2023-04-15T08:28:44;10.60;99.90
1205;DHT22;592;48.764;9.174;2023-04-15T08:31:11;10.70;99.90
1205;DHT22;592;48.764;9.174;2023-04-15T08:33:38;10.60;99.90
1205;DHT22;592;48.764;9.174;2023-04-15T08:36:06;10.70;99.50
1205;DHT22;592;48.764;9.174;2023-04-15T08:38:34;10.80;98.80
1205;DHT22;592;48.764;9.174;2023-04-15T08:41:03;11.00;99.00
1205;DHT22;592;48.764;9.174;2023-04-15T08:43:33;11.10;99.70
1205;DHT22;592;48.764;9.174;2023-04-15T08:46:00;11.30;99.40
1205;DHT22;592;48.764;9.174;2023-04-15T08:48:28;11.40;98.80
1205;DHT22;592;48.764;9.174;2023-04-15T08:50:56;11.40;99.00
1205;DHT22;592;48.764;9.174;2023-04-15T08:53:27;11.40;98.60
1205;DHT22;592;48.764;9.174;2023-04-15T08:55:56;11.60;98.80
1205;DHT22;592;48.764;9.174;2023-04-15T08:58:23;11.60;99.90
1205;DHT22;592;48.764;9.174;2023-04-15T09:00:50;11.80;97.50
1205;DHT22;592;48.764;9.174;2023-04-15T09:03:23;11.70;97.00
1205;DHT22;592;48.764;9.174;2023-04-15T09:05:51;11.90;98.20
1205;DHT22;592;48.764;9.174;2023-04-15T09:08:21;12.10;98.30
1205;DHT22;592;48.764;9.174;2023-04-15T09:10:49;12.00;97.20
1205;DHT22;592;48.764;9.174;2023-04-15T09:13:17;12.20;97.70
1205;DHT22;592;48.764;9.174;2023-04-15T09:15:44;12.30;96.00
1205;DHT22;592;48.764;9.174;2023-04-15T09:18:11;12.50;97.20
1205;DHT22;592;48.764;9.174;2023-04-15T09:20:39;12.60;97.00
1205;DHT22;592;48.764;9.174;2023-04-15T09:23:13;12.40;96.10
1205;DHT22;592;48.764;9.174;2023-04-15T09:25:42;12.60;96.70
1205;DHT22;592;48.764;9.174;2023-04-15T09:28:10;12.80;97.10
1205;DHT22;592;48.764;9.174;2023-04-15T09:30:36;12.90;97.00
1205;DHT22;592;48.764;9.174;2023-04-15T09:33:04;13.00;96.50
1205;DHT22;592;48.764;9.174;2023-04-15T09:35:32;13.10;96.40
1205;DHT22;592;48.764;9.174;2023-04-15T09:38:02;12.80;95.90
1205;DHT22;592;48.764;9.174;2023-04-15T09:40:33;12.80;96.10
1205;DHT22;592;48.764;9.174;2023-04-15T09:43:01;12.90;96.30
1205;DHT22;592;48.764;9.174;2023-04-15T09:45:30;12.90;95.30
1205;DHT22;592;48.764;9.174;2023-04-15T09:47:57;12.80;94.90
1205;DHT22;592;48.764;9.174;2023-04-15T09:50:26;12.80;94.30
1205;DHT22;592;48.764;9.174;2023-04-15T09:52:54;12.80;94.30
1205;DHT22;592;48.764;9.174;2023-04-15T09:55:21;12.80;94.30
1205;DHT22;592;48.764;9.174;2023-04-15T09:57:48;12.80;94.70
1205;DHT22;592;48.764;9.174;2023-04-15T10:00:15;12.50;94.00
1205;DHT22;592;48.764;9.174;2023-04-15T10:02:44;12.40;94.00
1205;DHT22;592;48.764;9.174;2023-04-15T10:05:13;12.40;94.30
1205;DHT22;592;48.764;9.174;2023-04-15T10:07:41;12.40;94.20
1205;DHT22;592;48.764;9.174;2023-04-15T10:10:09;12.10;94.20
1205;DHT22;592;48.764;9.174;2023-04-15T10:12:37;12.40;94.40
1205;DHT22;592;48.764;9.174;2023-04-15T10:15:12;12.40;94.70
1205;DHT22;592;48.764;9.174;2023-04-15T10:17:41;12.50;93.90
1205;DHT22;592;48.764;9.174;2023-04-15T10:20:11;12.60;94.10
1205;DHT22;592;48.764;9.174;2023-04-15T10:22:39;12.40;93.50
1205;DHT22;592;48.764;9.174;2023-04-15T10:25:07;12.60;93.90
1205;DHT22;592;48.764;9.174;2023-04-15T10:27:35;12.40;93.70
1205;DHT22;592;48.764;9.174;2023-04-15T10:30:02;12.40;94.20
1205;DHT22;592;48.764;9.174;2023-04-15T10:32:29;12.50;94.10
1205;DHT22;592;48.764;9.174;2023-04-15T10:34:56;13.00;94.70
1205;DHT22;592;48.764;9.174;2023-04-15T10:37:34;12.80;93.90
1205;DHT22;592;48.764;9.174;2023-04-15T10:40:23;12.80;94.10
1205;DHT22;592;48.764;9.174;2023-04-15T10:42:53;13.00;94.10
1205;DHT22;592;48.764;9.174;2023-04-15T10:45:20;13.20;93.20
1205;DHT22;592;48.764;9.174;2023-04-15T10:47:51;13.00;93.60
1205;DHT22;592;48.764;9.174;2023-04-15T10:50:19;12.90;93.20
1205;DHT22;592;48.764;9.174;2023-04-15T10:52:50;13.00;92.90
1205;DHT22;592;48.764;9.174;2023-04-15T10:55:19;13.20;93.30
1205;DHT22;592;48.764;9.174;2023-04-15T10:57:50;13.30;94.10
1205;DHT22;592;48.764;9.174;2023-04-15T11:00:19;13.40;94.50
1205;DHT22;592;48.764;9.174;2023-04-15T11:02:47;13.30;93.70
1205;DHT22;592;48.764;9.174;2023-04-15T11:05:14;13.20;94.10
1205;DHT22;592;48.764;9.174;2023-04-15T11:07:51;12.90;93.30
1205;DHT22;592;48.764;9.174;2023-04-15T11:10:52;12.60;93.70
1205;DHT22;592;48.764;9.174;2023-04-15T11:13:25;12.40;93.60
1205;DHT22;592;48.764;9.174;2023-04-15T11:15:59;12.40;93.80
1205;DHT22;592;48.764;9.174;2023-04-15T11:18:33;12.30;94.30
1205;DHT22;592;48.764;9.174;2023-04-15T11:21:02;12.40;94.00
1205;DHT22;592;48.764;9.174;2023-04-15T11:23:36;12.60;93.50
1205;DHT22;592;48.764;9.174;2023-04-15T11:26:05;12.70;94.00
1205;DHT22;592;48.764;9.174;2023-04-15T11:28:34;12.70;93.70
1205;DHT22;592;48.764;9.174;2023-04-15T11:31:06;12.90;93.50
1205;DHT22;592;48.764;9.174;2023-04-15T11:33:35;13.20;92.90
1205;DHT22;592;48.764;9.174;2023-04-15T11:36:01;13.40;93.00
1205;DHT22;592;48.764;9.174;2023-04-15T11:38:29;13.20;92.40
1205;DHT22;592;48.764;9.174;2023-04-15T11:40:57;13.50;92.50
1205;DHT22;592;48.764;9.174;2023-04-15T11:43:24;13.40;91.90
1205;DHT22;592;48.764;9.174;2023-04-15T11:45:52;13.20;92.50
1205;DHT22;592;48.764;9.174;2023-04-15T11:48:22;13.40;92.80
1205;DHT22;592;48.764;9.174;2023-04-15T11:50:52;13.10;92.90
1205;DHT22;592;48.764;9.174;2023-04-15T11:53:20;13.10;93.30
1205;DHT22;592;48.764;9.174;2023-04-15T11:55:48;12.80;94.40
1205;DHT22;592;48.764;9.174;2023-04-15T11:58:17;12.30;95.60
1205;DHT22;592;48.764;9.174;2023-04-15T12:00:49;12.40;96.90
1205;DHT22;592;48.764;9.174;2023-04-15T12:03:19;12.50;95.50
1205;DHT22;592;48.764;9.174;2023-04-15T12:06:12;12.50;95.60
1205;DHT22;592;48.764;9.174;2023-04-15T12:08:50;12.70;95.10
1205;DHT22;592;48.764;9.174;2023-04-15T12:11:18;12.80;95.60
1205;DHT22;592;48.764;9.174;2023-04-15T12:13:48;13.00;95.00
1205;DHT22;592;48.764;9.174;2023-04-15T12:16:16;13.10;94.50
1205;DHT22;592;48.764;9.174;2023-04-15T12:18:44;13.20;94.90
1205;DHT22;592;48.764;9.174;2023-04-15T12:21:12;13.10;94.20
1205;DHT22;592;48.764;9.174;2023-04-15T12:23:39;13.30;93.00
1205;DHT22;592;48.764;9.174;2023-04-15T12:26:13;13.10;92.90
1205;DHT22;592;48.764;9.174;2023-04-15T12:28:39;13.00;93.90
1205;DHT22;592;48.764;9.174;2023-04-15T12:31:08;13.00;93.20
1205;DHT22;592;48.764;9.174;2023-04-15T12:33:36;13.00;93.70
1205;DHT22;592;48.764;9.174;2023-04-15T12:36:03;12.40;95.50
1205;DHT22;592;48.764;9.174;2023-04-15T12:38:30;11.50;97.80
1205;DHT22;592;48.764;9.174;2023-04-15T12:40:57;11.10;99.30
1205;DHT22;592;48.764;9.174;2023-04-15T12:43:24;10.90;99.90
1205;DHT22;592;48.764;9.174;2023-04-15T12:45:51;10.60;99.90
1205;DHT22;592;48.764;9.174;2023-04-15T12:48:19;10.40;99.90
1205;DHT22;592;48.764;9.174;2023-04-15T12:50:46;10.10;99.90
1205;DHT22;592;48.764;9.174;2023-04-15T12:53:13;10.20;99.90
1205;DHT22;592;48.764;9.174;2023-04-15T12:55:39;10.00;99.90
1205;DHT22;592;48.764;9.174;2023-04-15T12:58:06;10.00;99.90
1205;DHT22;592;48.764;9.174;2023-04-15T13:00:33;10.00;99.90
1205;DHT22;592;48.764;9.174;2023-04-15T13:03:00;10.30;99.90
1205;DHT22;592;48.764;9.174;2023-04-15T13:05:28;10.40;99.90
1205;DHT22;592;48.764;9.174;2023-04-15T13:07:55;10.60;99.90
1205;DHT22;592;48.764;9.174;2023-04-15T13:10:22;10.70;99.90
1205;DHT22;592;48.764;9.174;2023-04-15T13:12:48;10.90;99.90
1205;DHT22;592;48.764;9.174;2023-04-15T13:15:18;10.90;99.90
1205;DHT22;592;48.764;9.174;2023-04-15T13:17:45;11.10;99.90
1205;DHT22;592;48.764;9.174;2023-04-15T13:20:12;11.10;99.90
1205;DHT22;592;48.764;9.174;2023-04-15T13:22:41;11.10;99.90
1205;DHT22;592;48.764;9.174;2023-04-15T13:25:08;11.00;99.60
1205;DHT22;592;48.764;9.174;2023-04-15T13:27:34;11.00;99.40
1205;DHT22;592;48.764;9.174;2023-04-15T13:30:02;11.20;99.50
1205;DHT22;592;48.764;9.174;2023-04-15T13:32:28;11.20;99.40
1205;DHT22;592;48.764;9.174;2023-04-15T13:34:55;11.30;99.40
1205;DHT22;592;48.764;9.174;2023-04-15T13:37:25;11.40;99.00
1205;DHT22;592;48.764;9.174;2023-04-15T13:39:53;11.50;99.10
1205;DHT22;592;48.764;9.174;2023-04-15T13:42:21;11.60;97.30
1205;DHT22;592;48.764;9.174;2023-04-15T13:44:48;11.60;96.90
1205;DHT22;592;48.764;9.174;2023-04-15T13:47:15;11.70;97.30
1205;DHT22;592;48.764;9.174;2023-04-15T13:49:42;11.60;93.80
1205;DHT22;592;48.764;9.174;2023-04-15T13:52:10;11.60;94.60
1205;DHT22;592;48.764;9.174;2023-04-15T13:54:37;11.80;93.80
1205;DHT22;592;48.764;9.174;2023-04-15T13:57:05;11.80;92.50
1205;DHT22;592;48.764;9.174;2023-04-15T13:59:34;11.60;91.70
1205;DHT22;592;48.764;9.174;2023-04-15T14:02:01;11.60;91.60
1205;DHT22;592;48.764;9.174;2023-04-15T14:04:28;11.70;92.00
1205;DHT22;592;48.764;9.174;2023-04-15T14:06:55;11.60;92.20
1205;DHT22;592;48.764;9.174;2023-04-15T14:09:22;11.60;91.30
1205;DHT22;592;48.764;9.174;2023-04-15T14:11:49;11.60;88.20
1205;DHT22;592;48.764;9.174;2023-04-15T14:14:17;11.60;89.20
1205;DHT22;592;48.764;9.174;2023-04-15T14:16:44;11.60;91.10
1205;DHT22;592;48.764;9.174;2023-04-15T14:19:10;11.60;90.80
1205;DHT22;592;48.764;9.174;2023-04-15T14:21:37;11.60;90.90
1205;DHT22;592;48.764;9.174;2023-04-15T14:24:04;11.60;91.30
1205;DHT22;592;48.764;9.174;2023-04-15T14:26:31;11.70;92.10
1205;DHT22;592;48.764;9.174;2023-04-15T14:28:58;11.70;90.00
1205;DHT22;592;48.764;9.174;2023-04-15T14:31:26;11.60;90.00
1205;DHT22;592;48.764;9.174;2023-04-15T14:33:53;11.50;90.40
1205;DHT22;592;48.764;9.174;2023-04-15T14:36:19;11.60;90.70
1205;DHT22;592;48.764;9.174;2023-04-15T14:38:46;11.50;90.60
1205;DHT22;592;48.764;9.174;2023-04-15T14:41:13;11.50;90.70
1205;DHT22;592;48.764;9.174;2023-04-15T14:43:40;11.50;91.00
1205;DHT22;592;48.764;9.174;2023-04-15T14:46:07;11.40;90.80
1205;DHT22;592;48.764;9.174;2023-04-15T14:48:35;11.40;92.00
1205;DHT22;592;48.764;9.174;2023-04-15T14:51:01;11.30;91.40
1205;DHT22;592;48.764;9.174;2023-04-15T14:53:30;11.10;91.50
1205;DHT22;592;48.764;9.174;2023-04-15T14:55:57;11.10;92.10
1205;DHT22;592;48.764;9.174;2023-04-15T14:58:23;10.90;92.10
1205;DHT22;592;48.764;9.174;2023-04-15T15:00:50;11.00;92.60
1205;DHT22;592;48.764;9.174;2023-04-15T15:03:17;10.90;92.60
1205;DHT22;592;48.764;9.174;2023-04-15T15:05:45;10.90;93.60
1205;DHT22;592;48.764;9.174;2023-04-15T15:08:12;10.70;93.20
1205;DHT22;592;48.764;9.174;2023-04-15T15:10:39;10.60;93.80
1205;DHT22;592;48.764;9.174;2023-04-15T15:13:08;10.60;94.60
1205;DHT22;592;48.764;9.174;2023-04-15T15:15:36;10.50;94.60
1205;DHT22;592;48.764;9.174;2023-04-15T15:18:04;10.50;95.00
1205;DHT22;592;48.764;9.174;2023-04-15T15:20:30;10.40;95.40
1205;DHT22;592;48.764;9.174;2023-04-15T15:23:00;10.40;95.60
1205;DHT22;592;48.764;9.174;2023-04-15T15:25:27;10.40;95.90
1205;DHT22;592;48.764;9.174;2023-04-15T15:27:54;10.40;96.20
1205;DHT22;592;48.764;9.174;2023-04-15T15:30:21;10.40;96.30
1205;DHT22;592;48.764;9.174;2023-04-15T15:32:48;10.30;96.40
1205;DHT22;592;48.764;9.174;2023-04-15T15:35:15;10.40;95.90
1205;DHT22;592;48.764;9.174;2023-04-15T15:37:41;10.40;96.40
1205;DHT22;592;48.764;9.174;2023-04-15T15:40:11;10.40;96.90
1205;DHT22;592;48.764;9.174;2023-04-15T15:42:37;10.50;96.70
1205;DHT22;592;48.764;9.174;2023-04-15T15:45:05;10.40;96.60
1205;DHT22;592;48.764;9.174;2023-04-15T15:47:32;10.30;96.70
1205;DHT22;592;48.764;9.174;2023-04-15T15:49:59;10.40;96.70
1205;DHT22;592;48.764;9.174;2023-04-15T15:52:26;10.40;96.60
1205;DHT22;592;48.764;9.174;2023-04-15T15:54:52;10.40;96.90
1205;DHT22;592;48.764;9.174;2023-04-15T15:57:21;10.40;96.20
1205;DHT22;592;48.764;9.174;2023-04-15T15:59:47;10.40;96.50
1205;DHT22;592;48.764;9.174;2023-04-15T16:02:14;10.40;96.40
1205;DHT22;592;48.764;9.174;2023-04-15T16:04:41;10.50;96.70
1205;DHT22;592;48.764;9.174;2023-04-15T16:07:08;10.50;95.90
1205;DHT22;592;48.764;9.174;2023-04-15T16:09:35;10.50;96.00
1205;DHT22;592;48.764;9.174;2023-04-15T16:12:01;10.50;97.30
1205;DHT22;592;48.764;9.174;2023-04-15T16:14:30;10.50;96.30
1205;DHT22;592;48.764;9.174;2023-04-15T16:16:57;10.50;96.60
1205;DHT22;592;48.764;9.174;2023-04-15T16:19:24;10.40;97.80
1205;DHT22;592;48.764;9.174;2023-04-15T16:21:50;9.90;99.80
1205;DHT22;592;48.764;9.174;2023-04-15T16:24:17;10.00;99.90
1205;DHT22;592;48.764;9.174;2023-04-15T16:26:45;9.90;99.90
1205;DHT22;592;48.764;9.174;2023-04-15T16:29:12;9.90;99.90